sensor_id;sensor_type;location;lat;lon;timestamp;P1;durP1;ratioP1;P2;durP2;ratioP2
54408;SDS011;40315;48.620;9.828;2023-07-31T00:01:58;4.38;;;1.45;;
54408;SDS011;40315;48.620;9.828;2023-07-31T00:04:27;4.95;;;1.52;;
54408;SDS011;40315;48.620;9.828;2023-07-31T00:06:53;2.30;;;1.40;;
54408;SDS011;40315;48.620;9.828;2023-07-31T00:09:23;4.28;;;1.95;;
54408;SDS011;40315;48.620;9.828;2023-07-31T00:11:50;5.55;;;1.70;;
54408;SDS011;40315;48.620;9.828;2023-07-31T00:14:17;3.88;;;1.50;;
54408;SDS011;40315;48.620;9.828;2023-07-31T00:16:46;4.07;;;1.50;;
54408;SDS011;40315;48.620;9.828;2023-07-31T00:19:13;2.25;;;1.70;;
54408;SDS011;40315;48.620;9.828;2023-07-31T00:21:41;4.43;;;1.95;;
54408;SDS011;40315;48.620;9.828;2023-07-31T00:24:09;3.53;;;1.17;;
54408;SDS011;40315;48.620;9.828;2023-07-31T00:26:35;4.18;;;1.45;;
54408;SDS011;40315;48.620;9.828;2023-07-31T00:29:03;2.35;;;1.50;;
54408;SDS011;40315;48.620;9.828;2023-07-31T00:31:30;3.65;;;1.55;;
54408;SDS011;40315;48.620;9.828;2023-07-31T00:33:57;1.50;;;1.40;;
54408;SDS011;40315;48.620;9.828;2023-07-31T00:36:25;3.33;;;1.75;;
54408;SDS011;40315;48.620;9.828;2023-07-31T00:38:53;2.58;;;1.50;;
54408;SDS011;40315;48.620;9.828;2023-07-31T00:41:20;1.80;;;1.50;;
54408;SDS011;40315;48.620;9.828;2023-07-31T00:43:47;3.75;;;1.48;;
54408;SDS011;40315;48.620;9.828;2023-07-31T00:46:14;4.47;;;1.50;;
54408;SDS011;40315;48.620;9.828;2023-07-31T00:48:41;2.35;;;1.55;;
54408;SDS011;40315;48.620;9.828;2023-07-31T00:51:09;2.22;;;1.20;;
54408;SDS011;40315;48.620;9.828;2023-07-31T00:53:36;2.53;;;1.48;;
54408;SDS011;40315;48.620;9.828;2023-07-31T00:56:07;2.15;;;1.33;;
54408;SDS011;40315;48.620;9.828;2023-07-31T00:58:37;3.63;;;1.77;;
54408;SDS011;40315;48.620;9.828;2023-07-31T01:03:44;1.60;;;1.30;;
54408;SDS011;40315;48.620;9.828;2023-07-31T01:06:14;2.35;;;1.38;;
54408;SDS011;40315;48.620;9.828;2023-07-31T01:08:51;3.70;;;1.50;;
54408;SDS011;40315;48.620;9.828;2023-07-31T01:11:31;3.88;;;1.45;;
54408;SDS011;40315;48.620;9.828;2023-07-31T01:14:01;3.15;;;1.50;;
54408;SDS011;40315;48.620;9.828;2023-07-31T01:16:28;4.78;;;1.90;;
54408;SDS011;40315;48.620;9.828;2023-07-31T01:18:55;4.10;;;1.60;;
54408;SDS011;40315;48.620;9.828;2023-07-31T01:21:26;3.38;;;1.55;;
54408;SDS011;40315;48.620;9.828;2023-07-31T01:24:14;7.53;;;1.67;;
54408;SDS011;40315;48.620;9.828;2023-07-31T01:26:57;3.10;;;1.83;;
54408;SDS011;40315;48.620;9.828;2023-07-31T01:29:32;3.70;;;1.60;;
54408;SDS011;40315;48.620;9.828;2023-07-31T01:32:04;4.88;;;1.67;;
54408;SDS011;40315;48.620;9.828;2023-07-31T01:34:34;4.65;;;1.65;;
54408;SDS011;40315;48.620;9.828;2023-07-31T01:37:10;3.53;;;1.60;;
54408;SDS011;40315;48.620;9.828;2023-07-31T01:39:37;2.53;;;1.40;;
54408;SDS011;40315;48.620;9.828;2023-07-31T01:42:06;3.85;;;1.77;;
54408;SDS011;40315;48.620;9.828;2023-07-31T01:44:34;4.50;;;1.70;;
54408;SDS011;40315;48.620;9.828;2023-07-31T01:47:00;3.20;;;1.55;;
54408;SDS011;40315;48.620;9.828;2023-07-31T17:47:24;5.72;;;2.60;;
54408;SDS011;40315;48.620;9.828;2023-07-31T17:49:51;4.63;;;2.55;;
54408;SDS011;40315;48.620;9.828;2023-07-31T17:52:18;2.65;;;2.25;;
54408;SDS011;40315;48.620;9.828;2023-07-31T17:54:46;3.85;;;2.22;;
54408;SDS011;40315;48.620;9.828;2023-07-31T17:57:17;4.50;;;2.40;;
54408;SDS011;40315;48.620;9.828;2023-07-31T17:59:45;3.97;;;2.88;;
54408;SDS011;40315;48.620;9.828;2023-07-31T18:02:12;4.63;;;2.47;;
54408;SDS011;40315;48.620;9.828;2023-07-31T18:04:40;5.07;;;2.63;;
54408;SDS011;40315;48.620;9.828;2023-07-31T18:07:08;4.68;;;2.40;;
54408;SDS011;40315;48.620;9.828;2023-07-31T18:09:35;3.22;;;2.35;;
54408;SDS011;40315;48.620;9.828;2023-07-31T18:12:04;4.55;;;2.28;;
54408;SDS011;40315;48.620;9.828;2023-07-31T18:14:32;3.97;;;2.22;;
54408;SDS011;40315;48.620;9.828;2023-07-31T18:17:00;3.10;;;2.33;;
54408;SDS011;40315;48.620;9.828;2023-07-31T18:19:28;3.33;;;2.05;;
54408;SDS011;40315;48.620;9.828;2023-07-31T18:21:57;4.90;;;2.58;;
54408;SDS011;40315;48.620;9.828;2023-07-31T18:24:24;3.55;;;2.42;;
54408;SDS011;40315;48.620;9.828;2023-07-31T18:26:52;4.07;;;2.30;;
54408;SDS011;40315;48.620;9.828;2023-07-31T18:29:20;3.58;;;1.95;;
54408;SDS011;40315;48.620;9.828;2023-07-31T18:31:47;3.10;;;2.50;;
54408;SDS011;40315;48.620;9.828;2023-07-31T18:34:16;5.40;;;2.50;;
54408;SDS011;40315;48.620;9.828;2023-07-31T18:36:43;4.70;;;2.80;;
54408;SDS011;40315;48.620;9.828;2023-07-31T18:39:12;2.78;;;2.13;;
54408;SDS011;40315;48.620;9.828;2023-07-31T18:41:40;5.47;;;2.63;;
54408;SDS011;40315;48.620;9.828;2023-07-31T18:44:07;3.67;;;2.40;;
54408;SDS011;40315;48.620;9.828;2023-07-31T18:46:34;3.60;;;2.53;;
54408;SDS011;40315;48.620;9.828;2023-07-31T18:49:02;2.58;;;2.10;;
54408;SDS011;40315;48.620;9.828;2023-07-31T18:51:30;2.80;;;2.45;;
54408;SDS011;40315;48.620;9.828;2023-07-31T18:54:02;5.53;;;2.70;;
54408;SDS011;40315;48.620;9.828;2023-07-31T18:56:31;3.05;;;2.47;;
54408;SDS011;40315;48.620;9.828;2023-07-31T18:58:59;3.45;;;2.53;;
54408;SDS011;40315;48.620;9.828;2023-07-31T19:01:27;4.00;;;2.90;;
54408;SDS011;40315;48.620;9.828;2023-07-31T19:03:54;4.88;;;2.72;;
54408;SDS011;40315;48.620;9.828;2023-07-31T19:06:23;3.83;;;2.45;;
54408;SDS011;40315;48.620;9.828;2023-07-31T19:08:51;3.10;;;2.70;;
54408;SDS011;40315;48.620;9.828;2023-07-31T19:11:19;3.65;;;2.47;;
54408;SDS011;40315;48.620;9.828;2023-07-31T19:13:48;6.05;;;2.83;;
54408;SDS011;40315;48.620;9.828;2023-07-31T19:16:15;4.93;;;3.10;;
54408;SDS011;40315;48.620;9.828;2023-07-31T19:18:45;5.40;;;2.97;;
54408;SDS011;40315;48.620;9.828;2023-07-31T19:21:13;5.82;;;2.58;;
54408;SDS011;40315;48.620;9.828;2023-07-31T19:23:41;5.82;;;2.80;;
54408;SDS011;40315;48.620;9.828;2023-07-31T19:26:08;5.53;;;3.17;;
54408;SDS011;40315;48.620;9.828;2023-07-31T19:28:37;5.20;;;3.00;;
54408;SDS011;40315;48.620;9.828;2023-07-31T19:31:06;4.45;;;3.28;;
54408;SDS011;40315;48.620;9.828;2023-07-31T19:33:33;4.72;;;2.95;;
54408;SDS011;40315;48.620;9.828;2023-07-31T19:36:04;4.85;;;2.75;;
54408;SDS011;40315;48.620;9.828;2023-07-31T19:38:35;3.88;;;2.95;;
54408;SDS011;40315;48.620;9.828;2023-07-31T19:41:02;3.53;;;2.88;;
54408;SDS011;40315;48.620;9.828;2023-07-31T19:43:29;5.10;;;2.72;;
54408;SDS011;40315;48.620;9.828;2023-07-31T19:45:59;4.85;;;3.00;;
54408;SDS011;40315;48.620;9.828;2023-07-31T19:48:27;4.72;;;3.25;;
54408;SDS011;40315;48.620;9.828;2023-07-31T19:50:54;6.07;;;3.17;;
54408;SDS011;40315;48.620;9.828;2023-07-31T19:53:21;5.40;;;3.10;;
54408;SDS011;40315;48.620;9.828;2023-07-31T19:55:48;6.93;;;3.40;;
54408;SDS011;40315;48.620;9.828;2023-07-31T19:58:16;5.18;;;3.40;;
54408;SDS011;40315;48.620;9.828;2023-07-31T20:00:43;4.75;;;3.28;;
54408;SDS011;40315;48.620;9.828;2023-07-31T20:03:10;4.30;;;3.42;;
54408;SDS011;40315;48.620;9.828;2023-07-31T20:05:38;4.13;;;3.40;;
54408;SDS011;40315;48.620;9.828;2023-07-31T20:08:06;4.90;;;3.28;;
54408;SDS011;40315;48.620;9.828;2023-07-31T20:10:33;4.30;;;2.97;;
54408;SDS011;40315;48.620;9.828;2023-07-31T20:13:01;4.40;;;2.95;;
54408;SDS011;40315;48.620;9.828;2023-07-31T20:15:28;7.03;;;3.33;;
54408;SDS011;40315;48.620;9.828;2023-07-31T20:17:55;7.80;;;3.03;;
54408;SDS011;40315;48.620;9.828;2023-07-31T20:20:22;5.65;;;3.00;;
54408;SDS011;40315;48.620;9.828;2023-07-31T20:22:51;4.80;;;3.00;;
54408;SDS011;40315;48.620;9.828;2023-07-31T20:25:18;6.88;;;3.22;;
54408;SDS011;40315;48.620;9.828;2023-07-31T20:27:45;5.30;;;3.25;;
54408;SDS011;40315;48.620;9.828;2023-07-31T20:30:12;3.47;;;2.70;;
54408;SDS011;40315;48.620;9.828;2023-07-31T20:32:40;7.57;;;2.95;;
54408;SDS011;40315;48.620;9.828;2023-07-31T20:35:07;5.93;;;3.58;;
54408;SDS011;40315;48.620;9.828;2023-07-31T20:37:36;6.35;;;3.30;;
54408;SDS011;40315;48.620;9.828;2023-07-31T20:40:06;5.25;;;3.25;;
54408;SDS011;40315;48.620;9.828;2023-07-31T20:42:36;4.55;;;3.13;;
54408;SDS011;40315;48.620;9.828;2023-07-31T20:45:06;4.80;;;3.10;;
54408;SDS011;40315;48.620;9.828;2023-07-31T20:47:34;5.40;;;3.00;;
54408;SDS011;40315;48.620;9.828;2023-07-31T20:50:01;6.30;;;3.17;;
54408;SDS011;40315;48.620;9.828;2023-07-31T20:52:28;4.72;;;3.20;;
54408;SDS011;40315;48.620;9.828;2023-07-31T20:55:21;5.75;;;3.05;;
54408;SDS011;40315;48.620;9.828;2023-07-31T20:57:48;7.38;;;3.08;;
54408;SDS011;40315;48.620;9.828;2023-07-31T21:00:16;5.35;;;2.85;;
54408;SDS011;40315;48.620;9.828;2023-07-31T21:02:44;4.70;;;2.85;;
54408;SDS011;40315;48.620;9.828;2023-07-31T21:05:11;6.28;;;3.20;;
54408;SDS011;40315;48.620;9.828;2023-07-31T21:07:38;4.38;;;2.88;;
54408;SDS011;40315;48.620;9.828;2023-07-31T21:10:07;5.07;;;3.20;;
54408;SDS011;40315;48.620;9.828;2023-07-31T21:12:38;6.07;;;3.50;;
54408;SDS011;40315;48.620;9.828;2023-07-31T21:15:08;4.18;;;2.85;;
54408;SDS011;40315;48.620;9.828;2023-07-31T21:17:36;6.07;;;3.05;;
54408;SDS011;40315;48.620;9.828;2023-07-31T21:20:04;6.20;;;2.90;;
54408;SDS011;40315;48.620;9.828;2023-07-31T21:22:31;6.35;;;3.10;;
54408;SDS011;40315;48.620;9.828;2023-07-31T21:25:01;3.67;;;2.80;;
54408;SDS011;40315;48.620;9.828;2023-07-31T21:27:28;4.25;;;2.92;;
54408;SDS011;40315;48.620;9.828;2023-07-31T21:29:58;4.22;;;2.80;;
54408;SDS011;40315;48.620;9.828;2023-07-31T21:32:26;5.47;;;3.22;;
54408;SDS011;40315;48.620;9.828;2023-07-31T21:34:52;5.55;;;3.22;;
54408;SDS011;40315;48.620;9.828;2023-07-31T21:37:19;5.38;;;3.53;;
54408;SDS011;40315;48.620;9.828;2023-07-31T21:39:46;5.35;;;3.50;;
54408;SDS011;40315;48.620;9.828;2023-07-31T21:42:13;5.13;;;3.50;;
54408;SDS011;40315;48.620;9.828;2023-07-31T21:44:40;4.93;;;2.90;;
54408;SDS011;40315;48.620;9.828;2023-07-31T21:47:09;5.07;;;3.10;;
54408;SDS011;40315;48.620;9.828;2023-07-31T21:49:36;5.15;;;3.30;;
54408;SDS011;40315;48.620;9.828;2023-07-31T21:52:03;5.10;;;3.30;;
54408;SDS011;40315;48.620;9.828;2023-07-31T21:54:30;5.88;;;3.65;;
54408;SDS011;40315;48.620;9.828;2023-07-31T21:56:57;3.53;;;2.80;;
54408;SDS011;40315;48.620;9.828;2023-07-31T21:59:27;4.43;;;3.20;;
54408;SDS011;40315;48.620;9.828;2023-07-31T22:01:54;4.57;;;3.22;;
54408;SDS011;40315;48.620;9.828;2023-07-31T22:04:25;6.00;;;3.20;;
54408;SDS011;40315;48.620;9.828;2023-07-31T22:06:54;5.43;;;3.05;;
54408;SDS011;40315;48.620;9.828;2023-07-31T22:09:21;4.53;;;3.20;;
54408;SDS011;40315;48.620;9.828;2023-07-31T22:11:48;4.97;;;3.58;;
54408;SDS011;40315;48.620;9.828;2023-07-31T22:14:15;4.72;;;3.50;;
54408;SDS011;40315;48.620;9.828;2023-07-31T22:16:42;4.63;;;2.95;;
54408;SDS011;40315;48.620;9.828;2023-07-31T22:19:09;4.93;;;3.28;;
54408;SDS011;40315;48.620;9.828;2023-07-31T22:21:37;6.68;;;3.15;;
54408;SDS011;40315;48.620;9.828;2023-07-31T22:24:04;5.75;;;3.40;;
54408;SDS011;40315;48.620;9.828;2023-07-31T22:26:31;6.78;;;3.55;;
54408;SDS011;40315;48.620;9.828;2023-07-31T22:29:00;6.28;;;3.30;;
54408;SDS011;40315;48.620;9.828;2023-07-31T22:31:30;4.55;;;2.80;;
54408;SDS011;40315;48.620;9.828;2023-07-31T22:33:57;7.63;;;3.13;;
54408;SDS011;40315;48.620;9.828;2023-07-31T22:36:24;3.67;;;2.80;;
54408;SDS011;40315;48.620;9.828;2023-07-31T22:38:52;3.40;;;2.95;;
54408;SDS011;40315;48.620;9.828;2023-07-31T22:41:19;4.15;;;2.95;;
54408;SDS011;40315;48.620;9.828;2023-07-31T22:43:46;3.58;;;3.00;;
54408;SDS011;40315;48.620;9.828;2023-07-31T22:46:13;4.30;;;3.10;;
54408;SDS011;40315;48.620;9.828;2023-07-31T22:48:40;4.88;;;2.90;;
54408;SDS011;40315;48.620;9.828;2023-07-31T22:51:09;4.20;;;3.05;;
54408;SDS011;40315;48.620;9.828;2023-07-31T22:53:36;4.03;;;2.90;;
54408;SDS011;40315;48.620;9.828;2023-07-31T22:56:07;4.28;;;3.08;;
54408;SDS011;40315;48.620;9.828;2023-07-31T22:58:35;6.00;;;3.20;;
54408;SDS011;40315;48.620;9.828;2023-07-31T23:01:02;5.35;;;3.53;;
54408;SDS011;40315;48.620;9.828;2023-07-31T23:03:30;3.97;;;3.13;;
54408;SDS011;40315;48.620;9.828;2023-07-31T23:05:57;3.75;;;3.30;;
54408;SDS011;40315;48.620;9.828;2023-07-31T23:08:24;8.23;;;3.30;;
54408;SDS011;40315;48.620;9.828;2023-07-31T23:10:51;6.72;;;3.10;;
54408;SDS011;40315;48.620;9.828;2023-07-31T23:13:20;4.30;;;3.00;;
54408;SDS011;40315;48.620;9.828;2023-07-31T23:15:47;6.28;;;3.10;;
54408;SDS011;40315;48.620;9.828;2023-07-31T23:18:14;4.28;;;3.30;;
54408;SDS011;40315;48.620;9.828;2023-07-31T23:20:41;6.03;;;3.63;;
54408;SDS011;40315;48.620;9.828;2023-07-31T23:23:14;4.93;;;2.90;;
54408;SDS011;40315;48.620;9.828;2023-07-31T23:25:45;4.30;;;3.03;;
54408;SDS011;40315;48.620;9.828;2023-07-31T23:28:12;5.22;;;3.08;;
54408;SDS011;40315;48.620;9.828;2023-07-31T23:30:40;4.30;;;3.10;;
54408;SDS011;40315;48.620;9.828;2023-07-31T23:33:09;5.30;;;3.08;;
54408;SDS011;40315;48.620;9.828;2023-07-31T23:35:36;5.53;;;3.25;;
54408;SDS011;40315;48.620;9.828;2023-07-31T23:38:03;6.47;;;3.60;;
54408;SDS011;40315;48.620;9.828;2023-07-31T23:40:30;5.82;;;3.50;;
54408;SDS011;40315;48.620;9.828;2023-07-31T23:42:57;6.13;;;3.90;;
54408;SDS011;40315;48.620;9.828;2023-07-31T23:45:27;7.05;;;3.70;;
54408;SDS011;40315;48.620;9.828;2023-07-31T23:47:55;5.15;;;3.58;;
54408;SDS011;40315;48.620;9.828;2023-07-31T23:50:22;6.60;;;3.83;;
54408;SDS011;40315;48.620;9.828;2023-07-31T23:52:52;4.88;;;3.20;;
54408;SDS011;40315;48.620;9.828;2023-07-31T23:55:19;4.05;;;3.45;;
54408;SDS011;40315;48.620;9.828;2023-07-31T23:57:46;4.15;;;3.15;;
